Time;durP1;ratioP1;P1;durP2;ratioP2;P2;SDS_P1;SDS_P2;PMS_P1;PMS_P2;Temp;Humidity;BMP_temperature;BMP_pressure;BME280_temperature;BME280_humidity;BME280_pressure;Samples;Min_cycle;Max_cycle;Signal;HPM_P1;HPM_P2
2021/01/10 00:01:55;;;;;;;108.82;32.00;;;0.90;99.90;;;;;;12299170;28;20077;-87
2021/01/10 00:07:58;;;;;;;115.30;33.65;;;0.80;99.90;;;;;;12286357;28;20073;-86
2021/01/10 00:13:59;;;;;;;97.10;33.10;;;0.80;99.90;;;;;;12299994;28;20082;-86
2021/01/10 00:20:00;;;;;;;107.90;34.40;;;0.90;99.90;;;;;;12283188;28;20047;-86
2021/01/10 00:26:01;;;;;;;114.95;34.85;;;0.90;99.90;;;;;;12286441;28;20047;-86
2021/01/10 00:32:03;;;;;;;92.82;33.60;;;0.90;99.90;;;;;;12294832;28;20141;-86
2021/01/10 00:38:05;;;;;;;102.00;32.75;;;1.10;99.90;;;;;;12283046;28;20201;-86
2021/01/10 00:44:06;;;;;;;93.35;32.30;;;1.10;99.90;;;;;;12292206;28;20095;-87
2021/01/10 00:50:09;;;;;;;90.35;33.35;;;1.20;99.90;;;;;;12293445;28;20101;-86
2021/01/10 00:56:10;;;;;;;90.22;33.05;;;1.20;99.90;;;;;;12284365;28;20078;-86
2021/01/10 01:02:12;;;;;;;95.00;31.20;;;1.10;99.90;;;;;;12288654;28;20078;-85
2021/01/10 01:08:14;;;;;;;92.75;31.88;;;1.10;99.90;;;;;;12283185;28;20042;-84
2021/01/10 01:14:15;;;;;;;89.30;30.40;;;1.10;99.90;;;;;;12279619;28;20047;-85
2021/01/10 01:20:16;;;;;;;94.50;32.85;;;1.10;99.90;;;;;;12281800;28;20416;-85
2021/01/10 01:26:19;;;;;;;89.65;31.42;;;1.10;99.90;;;;;;12275837;28;20615;-85
2021/01/10 01:32:21;;;;;;;97.25;32.75;;;1.10;99.90;;;;;;12285612;28;20043;-85
2021/01/10 01:38:22;;;;;;;92.38;30.15;;;1.10;99.90;;;;;;12296608;28;20055;-85
2021/01/10 01:44:24;;;;;;;74.40;29.67;;;1.20;99.90;;;;;;12281294;28;24150;-86
2021/01/10 01:50:25;;;;;;;70.93;28.02;;;1.30;99.90;;;;;;12290387;28;20488;-86
2021/01/10 01:56:26;;;;;;;72.22;27.83;;;1.60;99.90;;;;;;12314126;28;20099;-86
2021/01/10 02:02:28;;;;;;;66.80;27.05;;;1.40;99.90;;;;;;12274746;28;20105;-85
2021/01/10 02:08:35;;;;;;;82.00;30.30;;;1.40;99.90;;;;;;12277234;28;20143;-86
2021/01/10 02:14:44;;;;;;;80.47;30.40;;;1.40;99.90;;;;;;12293495;28;20042;-85
2021/01/10 02:20:46;;;;;;;76.97;29.27;;;1.30;99.90;;;;;;12292657;28;20067;-85
2021/01/10 02:26:48;;;;;;;86.32;30.45;;;1.30;99.90;;;;;;12282276;28;20043;-85
2021/01/10 02:32:59;;;;;;;89.68;31.38;;;1.30;99.90;;;;;;12285840;28;20051;-85
2021/01/10 02:39:05;;;;;;;79.65;28.52;;;1.30;99.90;;;;;;12283368;28;20042;-85
2021/01/10 02:45:12;;;;;;;69.93;26.73;;;1.40;99.90;;;;;;12262631;28;20177;-85
2021/01/10 02:51:13;;;;;;;60.28;27.27;;;1.80;99.90;;;;;;12300036;28;20141;-85
2021/01/10 02:57:22;;;;;;;65.45;26.42;;;1.80;99.90;;;;;;12298553;28;20411;-85
2021/01/10 03:03:24;;;;;;;56.65;24.63;;;1.70;99.90;;;;;;12277612;28;20478;-85
2021/01/10 03:09:27;;;;;;;55.72;25.02;;;1.60;99.90;;;;;;12286964;28;20054;-85
2021/01/10 03:15:28;;;;;;;63.13;27.48;;;1.60;99.90;;;;;;12309588;28;20046;-85
2021/01/10 03:21:30;;;;;;;67.85;26.60;;;1.50;99.90;;;;;;12306642;28;20385;-84
2021/01/10 03:27:35;;;;;;;55.92;23.80;;;1.40;99.90;;;;;;12304226;28;20121;-85
2021/01/10 03:33:38;;;;;;;56.17;23.77;;;1.50;99.90;;;;;;12307468;28;20058;-84
2021/01/10 03:39:40;;;;;;;53.03;23.60;;;1.40;99.90;;;;;;12311394;28;20081;-84
2021/01/10 03:45:41;;;;;;;54.47;24.27;;;1.40;99.90;;;;;;12291593;28;20130;-85
2021/01/10 03:51:43;;;;;;;65.70;25.77;;;1.40;99.90;;;;;;12297003;28;20182;-85
2021/01/10 03:57:44;;;;;;;54.53;23.33;;;1.30;99.90;;;;;;12290987;28;20141;-85
2021/01/10 04:03:46;;;;;;;57.63;23.50;;;1.30;99.90;;;;;;12285999;28;20121;-84
2021/01/10 04:09:47;;;;;;;62.03;24.48;;;1.30;99.90;;;;;;12300305;28;20129;-84
2021/01/10 04:15:48;;;;;;;63.00;25.13;;;1.30;99.90;;;;;;12291464;28;20135;-85
2021/01/10 04:21:50;;;;;;;66.43;25.88;;;1.30;99.90;;;;;;12281477;28;20107;-85
2021/01/10 04:27:52;;;;;;;82.47;27.50;;;1.30;99.90;;;;;;12300777;28;20503;-85
2021/01/10 04:33:53;;;;;;;83.28;31.50;;;1.30;99.90;;;;;;12305023;28;20043;-85
2021/01/10 04:39:54;;;;;;;97.65;31.63;;;1.30;99.90;;;;;;12303279;28;20074;-84
2021/01/10 04:45:56;;;;;;;83.78;29.50;;;1.40;99.90;;;;;;12272909;28;20066;-85
2021/01/10 04:51:58;;;;;;;68.55;28.52;;;1.50;99.90;;;;;;12304302;28;20423;-85
2021/01/10 04:58:07;;;;;;;59.50;25.95;;;1.60;99.90;;;;;;12302161;28;20051;-85
2021/01/10 05:04:08;;;;;;;50.40;22.65;;;1.50;99.90;;;;;;12300435;28;20513;-85
2021/01/10 05:10:10;;;;;;;44.97;22.05;;;1.80;99.90;;;;;;12287040;28;20142;-85
2021/01/10 05:16:19;;;;;;;31.30;16.77;;;1.80;99.90;;;;;;12306740;28;20125;-85
2021/01/10 05:22:21;;;;;;;28.73;16.80;;;1.90;99.90;;;;;;12285036;28;20051;-85
2021/01/10 05:28:23;;;;;;;32.05;16.70;;;1.80;99.90;;;;;;12276877;28;20055;-85
2021/01/10 05:34:26;;;;;;;33.00;17.55;;;1.90;99.90;;;;;;12302751;28;20133;-85
2021/01/10 05:40:30;;;;;;;34.20;18.40;;;1.70;99.90;;;;;;12280898;28;20049;-85
2021/01/10 05:46:32;;;;;;;30.85;17.63;;;1.60;99.90;;;;;;12287383;28;20097;-85
2021/01/10 05:52:34;;;;;;;34.83;18.70;;;1.70;99.90;;;;;;12288250;28;20571;-85
2021/01/10 05:58:38;;;;;;;37.83;19.95;;;1.80;99.90;;;;;;12299447;28;20043;-85
2021/01/10 06:04:39;;;;;;;36.83;20.05;;;1.80;99.90;;;;;;12297007;28;20133;-85
2021/01/10 06:10:41;;;;;;;35.42;17.80;;;1.60;99.90;;;;;;12300927;28;20562;-84
2021/01/10 06:16:52;;;;;;;31.52;16.50;;;1.50;99.90;;;;;;12297732;28;21511;-85
2021/01/10 06:22:56;;;;;;;26.92;15.85;;;1.50;99.90;;;;;;12310507;28;20062;-85
2021/01/10 06:29:07;;;;;;;22.70;13.20;;;1.30;99.90;;;;;;12296267;28;20137;-85
2021/01/10 06:35:10;;;;;;;27.50;13.65;;;1.20;99.90;;;;;;12296058;28;20075;-85
2021/01/10 06:41:34;;;;;;;21.53;11.97;;;1.20;99.90;;;;;;12305793;28;20062;-86
2021/01/10 06:47:36;;;;;;;21.98;13.00;;;1.20;99.90;;;;;;12258917;28;20058;-85
2021/01/10 06:53:41;;;;;;;21.67;12.15;;;1.20;99.90;;;;;;12259420;28;20126;-85
2021/01/10 06:59:59;;;;;;;21.33;12.15;;;1.20;99.90;;;;;;12266042;28;20075;-85
2021/01/10 07:06:05;;;;;;;20.75;12.10;;;1.20;99.90;;;;;;12249255;28;20402;-85
2021/01/10 07:12:20;;;;;;;21.23;11.45;;;1.10;99.90;;;;;;12266901;28;20074;-84
2021/01/10 07:18:21;;;;;;;23.83;12.77;;;1.10;99.90;;;;;;12265843;28;20059;-85
2021/01/10 07:24:30;;;;;;;23.42;12.52;;;1.00;99.90;;;;;;12262446;28;20136;-84
2021/01/10 07:30:31;;;;;;;21.38;11.60;;;1.00;99.90;;;;;;12260351;28;20497;-85
2021/01/10 07:37:05;;;;;;;18.95;10.50;;;1.10;99.90;;;;;;12256412;28;20122;-84
2021/01/10 07:43:06;;;;;;;20.08;11.13;;;1.00;99.90;;;;;;12266143;28;20093;-84
2021/01/10 07:49:07;;;;;;;24.98;12.43;;;1.00;99.90;;;;;;12293552;28;20444;-86
2021/01/10 07:55:18;;;;;;;23.65;11.55;;;1.10;99.90;;;;;;12296779;28;20047;-86
2021/01/10 08:01:19;;;;;;;22.60;11.40;;;1.20;99.90;;;;;;12331614;28;20126;-85
2021/01/10 08:07:25;;;;;;;22.15;11.45;;;1.30;99.90;;;;;;12303142;28;20062;-85
2021/01/10 08:13:29;;;;;;;22.65;11.15;;;1.40;99.90;;;;;;12300859;28;20082;-84
2021/01/10 08:19:38;;;;;;;19.30;10.35;;;1.90;99.90;;;;;;12282073;28;20047;-85
2021/01/10 08:25:40;;;;;;;21.80;11.18;;;2.10;99.90;;;;;;12291537;28;20039;-85
2021/01/10 08:31:42;;;;;;;20.15;10.05;;;2.10;99.90;;;;;;12289435;28;20090;-84
2021/01/10 08:37:48;;;;;;;21.27;10.77;;;2.10;99.90;;;;;;12292287;28;20175;-85
2021/01/10 08:44:04;;;;;;;24.45;10.70;;;1.80;99.90;;;;;;12301142;28;20158;-85
2021/01/10 08:50:06;;;;;;;20.50;11.20;;;1.70;99.90;;;;;;12286583;28;20146;-84
2021/01/10 08:56:16;;;;;;;20.02;11.23;;;1.80;99.90;;;;;;12291804;28;20145;-84
2021/01/10 09:02:17;;;;;;;22.35;11.60;;;1.80;99.90;;;;;;12286195;28;20047;-84
2021/01/10 09:08:35;;;;;;;23.75;11.95;;;1.80;99.90;;;;;;12293895;28;20073;-84
2021/01/10 09:15:05;;;;;;;26.35;13.23;;;1.80;99.90;;;;;;12290811;28;20109;-85
2021/01/10 09:21:16;;;;;;;30.08;14.43;;;1.80;99.90;;;;;;12288794;28;20047;-85
2021/01/10 09:27:18;;;;;;;30.83;15.18;;;1.80;99.90;;;;;;12288809;28;20065;-86
2021/01/10 09:33:27;;;;;;;27.65;13.93;;;1.90;99.90;;;;;;12297463;28;20078;-85
2021/01/10 09:39:43;;;;;;;29.02;14.60;;;2.00;99.90;;;;;;12293122;28;20107;-85
2021/01/10 09:45:44;;;;;;;30.67;15.63;;;2.10;99.90;;;;;;12150281;28;20487;-85
2021/01/10 09:51:54;;;;;;;31.05;15.82;;;2.20;99.90;;;;;;12259843;28;20061;-86
2021/01/10 09:57:55;;;;;;;31.30;15.25;;;2.30;99.90;;;;;;12293783;28;20137;-84
2021/01/10 10:03:57;;;;;;;30.52;15.75;;;2.40;99.90;;;;;;12282921;28;20050;-85
2021/01/10 10:09:59;;;;;;;28.38;14.90;;;2.50;99.90;;;;;;12285751;28;20450;-85
2021/01/10 10:16:03;;;;;;;29.88;14.23;;;2.50;99.90;;;;;;12281739;28;20515;-86
2021/01/10 10:22:19;;;;;;;27.73;15.80;;;2.60;99.90;;;;;;12284700;28;20038;-85
2021/01/10 10:28:20;;;;;;;33.28;16.75;;;2.70;99.90;;;;;;12286732;28;20411;-84
2021/01/10 10:34:22;;;;;;;28.88;15.73;;;3.00;99.90;;;;;;12294718;28;20042;-85
2021/01/10 10:40:23;;;;;;;31.30;15.73;;;3.00;99.90;;;;;;12286993;28;20129;-85
2021/01/10 10:46:25;;;;;;;28.27;15.07;;;2.90;99.90;;;;;;12283552;28;20574;-85
2021/01/10 10:52:26;;;;;;;31.38;16.45;;;2.90;99.90;;;;;;12296873;28;20431;-85
2021/01/10 10:58:27;;;;;;;28.30;16.70;;;2.90;99.90;;;;;;12301963;28;21421;-86
2021/01/10 11:04:29;;;;;;;33.30;16.38;;;3.00;99.90;;;;;;12281024;28;20147;-85
2021/01/10 11:10:30;;;;;;;31.05;17.30;;;3.20;99.90;;;;;;12308803;28;20141;-86
2021/01/10 11:16:36;;;;;;;35.67;17.88;;;3.10;99.90;;;;;;12284966;28;20141;-85
2021/01/10 11:22:38;;;;;;;30.23;17.05;;;3.20;99.90;;;;;;12306956;28;20051;-85
2021/01/10 11:28:39;;;;;;;33.03;16.48;;;3.20;99.90;;;;;;12281531;28;20142;-85
2021/01/10 11:34:40;;;;;;;25.33;14.98;;;3.20;99.90;;;;;;12295090;28;20039;-84
2021/01/10 11:40:41;;;;;;;23.77;13.25;;;3.30;99.90;;;;;;12284108;28;20105;-85
2021/01/10 11:46:45;;;;;;;21.77;13.55;;;3.50;99.90;;;;;;12292915;28;20141;-84
2021/01/10 11:52:47;;;;;;;19.23;10.73;;;3.40;99.90;;;;;;12282010;28;20138;-85
2021/01/10 11:58:48;;;;;;;17.33;9.73;;;3.50;99.90;;;;;;12291721;28;20551;-84
2021/01/10 12:04:49;;;;;;;18.48;10.43;;;3.40;99.90;;;;;;12304941;28;20074;-84
2021/01/10 12:10:52;;;;;;;15.00;9.35;;;3.40;99.90;;;;;;12301693;28;20046;-84
2021/01/10 12:16:53;;;;;;;15.85;8.95;;;3.30;99.90;;;;;;12289962;28;20062;-85
2021/01/10 12:22:54;;;;;;;13.75;8.25;;;3.50;99.90;;;;;;12293816;28;20051;-84
2021/01/10 12:28:56;;;;;;;14.20;8.75;;;3.40;99.90;;;;;;12286958;28;20081;-84
2021/01/10 12:34:57;;;;;;;14.80;9.63;;;3.40;99.90;;;;;;12301404;28;20356;-84
2021/01/10 12:40:58;;;;;;;17.42;9.43;;;3.60;99.90;;;;;;12297433;28;20205;-84
2021/01/10 12:46:59;;;;;;;17.98;9.43;;;3.50;99.90;;;;;;12287574;28;20059;-83
2021/01/10 12:53:01;;;;;;;19.02;10.20;;;3.50;99.90;;;;;;12288727;28;20058;-83
2021/01/10 12:59:02;;;;;;;18.83;10.27;;;3.40;99.90;;;;;;12291225;28;20090;-84
2021/01/10 13:05:10;;;;;;;19.70;10.90;;;3.50;99.90;;;;;;12283923;28;20207;-84
2021/01/10 13:11:20;;;;;;;17.15;10.30;;;3.40;99.90;;;;;;12316386;28;20051;-84
2021/01/10 13:17:21;;;;;;;17.40;10.60;;;3.30;99.90;;;;;;12295176;28;20459;-85
2021/01/10 13:23:23;;;;;;;19.40;11.70;;;3.30;99.90;;;;;;12306298;28;20804;-84
2021/01/10 13:29:25;;;;;;;23.75;12.18;;;3.40;99.90;;;;;;12286545;28;20051;-84
2021/01/10 13:35:31;;;;;;;22.42;11.80;;;3.40;99.90;;;;;;12314310;28;20035;-83
2021/01/10 13:41:32;;;;;;;26.70;12.60;;;3.30;99.90;;;;;;12315882;28;20050;-83
2021/01/10 13:47:37;;;;;;;21.17;11.52;;;3.30;99.90;;;;;;12320714;28;20600;-84
2021/01/10 13:53:38;;;;;;;22.45;12.70;;;3.30;99.90;;;;;;12285643;28;20666;-84
2021/01/10 13:59:39;;;;;;;32.00;14.45;;;3.20;99.90;;;;;;12306035;28;20133;-84
2021/01/10 14:05:41;;;;;;;32.08;14.55;;;3.10;99.90;;;;;;12323211;28;20150;-85
2021/01/10 14:11:42;;;;;;;31.10;15.15;;;3.00;99.90;;;;;;12319243;28;20558;-83
2021/01/10 14:17:43;;;;;;;37.05;16.73;;;2.90;99.90;;;;;;12285839;28;20170;-84
2021/01/10 14:23:44;;;;;;;37.92;17.15;;;2.80;99.90;;;;;;12316324;28;20068;-84
2021/01/10 14:29:46;;;;;;;39.17;20.17;;;2.80;99.90;;;;;;12302423;28;20093;-84
2021/01/10 14:35:47;;;;;;;40.83;20.45;;;2.80;99.90;;;;;;12291597;28;20074;-83
2021/01/10 14:41:49;;;;;;;39.67;21.50;;;2.70;99.90;;;;;;12292759;28;20043;-83
2021/01/10 14:47:51;;;;;;;43.10;21.13;;;2.50;99.90;;;;;;12284131;28;20059;-83
2021/01/10 14:53:53;;;;;;;46.70;22.20;;;2.40;99.90;;;;;;12298220;28;20051;-84
2021/01/10 14:59:55;;;;;;;42.78;22.10;;;2.30;99.90;;;;;;12294506;28;20152;-84
2021/01/10 15:05:56;;;;;;;42.58;20.02;;;2.30;99.90;;;;;;12293256;28;20851;-83
2021/01/10 15:11:57;;;;;;;42.50;20.75;;;2.20;99.90;;;;;;12312498;28;20062;-83
2021/01/10 15:17:59;;;;;;;48.72;24.08;;;2.10;99.90;;;;;;12295769;28;20101;-84
2021/01/10 15:24:00;;;;;;;42.83;20.88;;;2.00;99.90;;;;;;12303973;28;20051;-84
2021/01/10 15:30:02;;;;;;;45.80;23.15;;;2.00;99.90;;;;;;12286119;28;20415;-83
2021/01/10 15:36:08;;;;;;;47.22;21.30;;;2.00;99.90;;;;;;12277973;28;20649;-83
2021/01/10 15:42:10;;;;;;;45.88;22.98;;;1.90;99.90;;;;;;12294869;28;20142;-83
2021/01/10 15:48:11;;;;;;;45.70;22.10;;;1.90;99.90;;;;;;12299421;28;20065;-84
2021/01/10 15:54:13;;;;;;;46.58;22.67;;;1.80;99.90;;;;;;12290438;28;20054;-83
2021/01/10 16:00:15;;;;;;;47.30;21.17;;;1.70;99.90;;;;;;12294040;28;20133;-84
2021/01/10 16:06:16;;;;;;;46.05;20.45;;;1.70;99.90;;;;;;12299046;28;20122;-83
2021/01/10 16:12:18;;;;;;;38.85;19.88;;;1.80;99.90;;;;;;12291576;28;20135;-83
2021/01/10 16:18:19;;;;;;;42.50;18.92;;;1.80;99.90;;;;;;12309900;28;20189;-83
2021/01/10 16:24:20;;;;;;;36.97;17.52;;;1.80;99.90;;;;;;12292638;28;20073;-84
2021/01/10 16:30:22;;;;;;;36.85;16.65;;;1.80;99.90;;;;;;12297550;28;20316;-83
2021/01/10 16:36:24;;;;;;;35.70;16.20;;;1.90;99.90;;;;;;12295501;28;20503;-82
2021/01/10 16:42:26;;;;;;;42.53;16.20;;;1.80;99.90;;;;;;12285252;28;20079;-83
2021/01/10 16:48:30;;;;;;;40.47;16.33;;;1.80;99.90;;;;;;12286936;28;20278;-83
2021/01/10 16:54:32;;;;;;;38.30;15.15;;;1.70;99.90;;;;;;12287948;28;20051;-84
2021/01/10 17:00:33;;;;;;;33.97;13.55;;;1.70;99.90;;;;;;12286561;28;20078;-84
2021/01/10 17:06:35;;;;;;;36.45;14.25;;;1.80;99.90;;;;;;12286600;28;20054;-84
2021/01/10 17:12:37;;;;;;;32.30;13.55;;;1.80;99.90;;;;;;12294069;28;20530;-83
2021/01/10 17:18:44;;;;;;;35.22;13.70;;;1.90;99.90;;;;;;12290624;28;20051;-85
2021/01/10 17:24:46;;;;;;;32.42;13.20;;;1.90;99.90;;;;;;12291748;28;20487;-84
2021/01/10 17:30:47;;;;;;;29.27;12.98;;;2.00;99.90;;;;;;12308726;28;20074;-83
2021/01/10 17:36:48;;;;;;;34.20;13.70;;;2.00;99.90;;;;;;12285841;28;20059;-83
2021/01/10 17:42:52;;;;;;;31.92;12.07;;;2.00;99.90;;;;;;12283161;28;20130;-83
2021/01/10 17:48:54;;;;;;;30.70;13.40;;;2.00;99.90;;;;;;12296172;28;20055;-83
2021/01/10 17:54:55;;;;;;;34.10;12.45;;;2.00;99.90;;;;;;12289186;28;20134;-83
2021/01/10 18:00:56;;;;;;;29.77;12.40;;;2.10;99.90;;;;;;12293781;28;20074;-84
2021/01/10 18:06:58;;;;;;;28.90;13.30;;;2.00;99.90;;;;;;12313259;28;20448;-82
2021/01/10 18:12:59;;;;;;;30.80;12.68;;;2.00;99.90;;;;;;12301091;28;20051;-83
2021/01/10 18:19:00;;;;;;;30.83;13.15;;;2.10;99.90;;;;;;12298080;28;20174;-83
2021/01/10 18:25:04;;;;;;;28.50;13.77;;;2.10;99.90;;;;;;12283484;28;20491;-85
2021/01/10 18:31:05;;;;;;;37.20;14.82;;;2.10;99.90;;;;;;12295780;28;20097;-83
2021/01/10 18:37:06;;;;;;;32.28;13.80;;;2.10;99.90;;;;;;12288976;28;20047;-84
2021/01/10 18:43:08;;;;;;;35.03;15.15;;;2.20;99.90;;;;;;12306278;28;20043;-85
2021/01/10 18:49:09;;;;;;;34.15;15.50;;;2.10;99.90;;;;;;12311889;28;20831;-83
2021/01/10 18:55:10;;;;;;;34.72;15.10;;;2.10;99.90;;;;;;12310968;28;20535;-84
2021/01/10 19:01:12;;;;;;;38.05;15.20;;;2.10;99.90;;;;;;12303452;28;20126;-83
2021/01/10 19:07:14;;;;;;;32.67;15.63;;;2.10;99.90;;;;;;12292034;28;20055;-84
2021/01/10 19:13:17;;;;;;;41.22;16.05;;;2.20;99.90;;;;;;12298192;28;20043;-84
2021/01/10 19:19:18;;;;;;;35.05;15.25;;;2.20;99.90;;;;;;12320278;28;20061;-83
2021/01/10 19:25:20;;;;;;;39.92;15.60;;;2.20;99.90;;;;;;12308064;28;20047;-84
2021/01/10 19:31:28;;;;;;;34.28;14.55;;;2.20;99.90;;;;;;12293149;28;20060;-83
2021/01/10 19:37:30;;;;;;;34.20;15.93;;;2.20;99.90;;;;;;12293186;28;20511;-85
2021/01/10 19:43:31;;;;;;;37.20;14.93;;;2.20;99.90;;;;;;12310350;28;20097;-85
2021/01/10 19:49:33;;;;;;;35.60;16.10;;;2.20;99.90;;;;;;12294027;28;20055;-84
2021/01/10 19:55:34;;;;;;;42.20;16.08;;;2.20;99.90;;;;;;12308250;28;20050;-84
2021/01/10 20:01:38;;;;;;;35.30;16.55;;;2.20;99.90;;;;;;12298929;28;20047;-83
2021/01/10 20:07:41;;;;;;;36.75;15.13;;;2.10;99.90;;;;;;12282536;28;20185;-84
2021/01/10 20:13:42;;;;;;;34.92;16.65;;;2.20;99.90;;;;;;12289733;28;20467;-83
2021/01/10 20:19:50;;;;;;;35.60;16.23;;;2.10;99.90;;;;;;12288746;28;20082;-84
2021/01/10 20:25:51;;;;;;;37.95;16.83;;;2.10;99.90;;;;;;12292141;28;20931;-84
2021/01/10 20:31:53;;;;;;;36.58;16.63;;;2.10;99.90;;;;;;12296784;28;20101;-84
2021/01/10 20:37:56;;;;;;;35.78;16.05;;;2.20;99.90;;;;;;12285026;28;20114;-84
2021/01/10 20:43:58;;;;;;;32.05;15.63;;;2.10;99.90;;;;;;12297177;28;20586;-84
2021/01/10 20:49:59;;;;;;;37.45;17.48;;;2.30;99.90;;;;;;12312019;28;20113;-85
2021/01/10 20:56:07;;;;;;;36.60;18.17;;;2.20;99.90;;;;;;12302764;28;20070;-84
2021/01/10 21:02:08;;;;;;;35.17;18.23;;;2.10;99.90;;;;;;12282777;28;20043;-83
2021/01/10 21:08:10;;;;;;;39.30;18.58;;;2.10;99.90;;;;;;12276033;28;20154;-84
2021/01/10 21:14:11;;;;;;;43.97;19.35;;;2.20;99.90;;;;;;12278266;28;20143;-84
2021/01/10 21:20:13;;;;;;;35.75;19.35;;;2.10;99.90;;;;;;12290640;28;20059;-84
2021/01/10 21:26:15;;;;;;;39.35;20.67;;;2.10;99.90;;;;;;12276844;28;20158;-84
2021/01/10 21:32:16;;;;;;;40.65;20.90;;;2.10;99.90;;;;;;12300979;28;20067;-84
2021/01/10 21:38:20;;;;;;;39.93;20.00;;;2.10;99.90;;;;;;12285306;28;20611;-84
2021/01/10 21:44:22;;;;;;;41.53;21.20;;;2.10;99.90;;;;;;12291375;28;20297;-83
2021/01/10 21:50:24;;;;;;;37.00;21.02;;;2.00;99.90;;;;;;12314403;28;20061;-84
2021/01/10 21:56:25;;;;;;;40.53;21.38;;;2.00;99.90;;;;;;12311739;28;20047;-84
2021/01/10 22:02:27;;;;;;;43.95;22.42;;;2.00;99.90;;;;;;12285617;28;20043;-84
2021/01/10 22:08:28;;;;;;;43.08;22.27;;;1.90;99.90;;;;;;12300468;28;20058;-84
2021/01/10 22:14:30;;;;;;;45.28;22.42;;;1.90;99.90;;;;;;12288474;28;20401;-84
2021/01/10 22:20:31;;;;;;;49.45;24.50;;;1.90;99.90;;;;;;12289212;28;20137;-84
2021/01/10 22:26:33;;;;;;;45.78;23.50;;;1.80;99.90;;;;;;12296748;28;20047;-85
2021/01/10 22:32:35;;;;;;;49.92;24.50;;;1.80;99.90;;;;;;12278911;28;20102;-83
2021/01/10 22:38:37;;;;;;;49.15;23.20;;;1.80;99.90;;;;;;12296300;28;20097;-83
2021/01/10 22:44:39;;;;;;;50.38;25.17;;;1.80;99.90;;;;;;12288374;28;20097;-84
2021/01/10 22:50:40;;;;;;;46.78;23.83;;;1.80;99.90;;;;;;12274327;28;20483;-83
2021/01/10 22:56:41;;;;;;;47.45;24.15;;;1.80;99.90;;;;;;12313354;28;20170;-83
2021/01/10 23:02:43;;;;;;;48.35;25.88;;;1.90;99.90;;;;;;12288809;28;20068;-84
2021/01/10 23:08:44;;;;;;;50.30;25.67;;;1.90;99.90;;;;;;12306338;28;20141;-85
2021/01/10 23:14:45;;;;;;;49.28;24.40;;;2.00;99.90;;;;;;12288369;28;20135;-84
2021/01/10 23:20:46;;;;;;;48.47;25.38;;;2.10;99.90;;;;;;12289315;28;20101;-83
2021/01/10 23:26:48;;;;;;;46.55;25.55;;;2.10;99.90;;;;;;12304492;28;20054;-84
2021/01/10 23:32:57;;;;;;;54.05;27.60;;;2.10;99.90;;;;;;12290546;28;20479;-84
2021/01/10 23:38:59;;;;;;;45.72;25.75;;;2.00;99.90;;;;;;12281785;28;20138;-83
2021/01/10 23:45:00;;;;;;;52.67;27.05;;;2.00;99.90;;;;;;12304464;28;20570;-84
2021/01/10 23:51:01;;;;;;;55.08;29.13;;;2.00;99.90;;;;;;12287271;28;20097;-85
2021/01/10 23:57:09;;;;;;;52.92;28.33;;;1.90;99.90;;;;;;12291014;28;20592;-85
